Main page
METAR-TAF:

METAR-TAF

Airports :

Gran Canaria, Spain

Gran Canaria Airport

latitude: 27-56N, longitude: 015-23W, elevation: 23 m

Current weather observation

The report was made 32 minutes ago, at 20:00 UTC
Wind 14 kt from the North
Temperature 18°C
Humidity 77%
Pressure 1024 hPa
Visibility 10 km or more
Few clouds at a height of 2000 ft
Scattered clouds at a height of 3500 ft

METAR: GCLP 182000Z 35014KT 9999 FEW020 SCT035 18/14 Q1024 NOSIG

Time: 20:32 (20:32 UTC)

Forecast

The report was made 6 hours and 32 minutes ago, at 14:00 UTC
Forecast valid from 18 at 15 UTC to 19 at 15 UTC
Wind 20 kt from the North/Northeast
Visibility 10 km or more
Few clouds at a height of 2500 ft
Scattered clouds at a height of 3000 ft

TAF: GCLP 181400Z 1815/1915 03020KT 9999 FEW025 SCT030 TX20/1913Z TN16/1906Z

Weather observations and forecasts of more than 4000 airports (METAR and TAF reports).

The available stations are represented by yellow and red dots on the map.

Hover mouse over dot to see the name of the station.

Then click to see weather observations and forecasts.

To change the map : click on the green buttons with a black cross to zoom in, on the green button with a dash to zoom out, or on the green arrows for adjacent maps.


METAR-TAF: